sensor_id;sensor_type;location;lat;lon;timestamp;pressure;altitude;pressure_sealevel;temperature;humidity
11395;BME280;5753;54.402;10.220;2023-03-22T00:01:20;100837.41;;;17.96;66.77
11395;BME280;5753;54.402;10.220;2023-03-22T00:03:47;100837.34;;;19.07;61.90
11395;BME280;5753;54.402;10.220;2023-03-22T00:06:14;100830.75;;;17.77;65.94
11395;BME280;5753;54.402;10.220;2023-03-22T00:08:42;100834.97;;;17.85;66.50
11395;BME280;5753;54.402;10.220;2023-03-22T00:11:09;100822.59;;;18.55;63.97
11395;BME280;5753;54.402;10.220;2023-03-22T00:13:36;100833.31;;;17.80;66.96
11395;BME280;5753;54.402;10.220;2023-03-22T00:16:03;100829.88;;;17.76;66.71
11395;BME280;5753;54.402;10.220;2023-03-22T00:18:30;100828.09;;;17.08;70.34
11395;BME280;5753;54.402;10.220;2023-03-22T00:20:57;100828.66;;;16.45;72.52
11395;BME280;5753;54.402;10.220;2023-03-22T00:23:24;100818.53;;;17.08;71.53
11395;BME280;5753;54.402;10.220;2023-03-22T00:25:51;100825.09;;;18.07;65.25
11395;BME280;5753;54.402;10.220;2023-03-22T00:28:17;100823.81;;;17.00;69.04
11395;BME280;5753;54.402;10.220;2023-03-22T00:30:51;100819.06;;;17.38;67.62
11395;BME280;5753;54.402;10.220;2023-03-22T00:33:18;100814.16;;;17.12;69.74
11395;BME280;5753;54.402;10.220;2023-03-22T00:35:53;100811.50;;;16.21;72.37
11395;BME280;5753;54.402;10.220;2023-03-22T00:38:19;100811.34;;;17.28;69.11
11395;BME280;5753;54.402;10.220;2023-03-22T00:40:46;100802.44;;;17.45;69.01
11395;BME280;5753;54.402;10.220;2023-03-22T00:43:12;100792.22;;;17.29;69.13
11395;BME280;5753;54.402;10.220;2023-03-22T00:45:39;100787.28;;;18.33;64.64
11395;BME280;5753;54.402;10.220;2023-03-22T00:48:10;100792.59;;;16.97;70.72
11395;BME280;5753;54.402;10.220;2023-03-22T00:50:38;100788.50;;;17.49;67.77
11395;BME280;5753;54.402;10.220;2023-03-22T00:53:04;100787.06;;;16.41;71.49
11395;BME280;5753;54.402;10.220;2023-03-22T00:55:31;100783.91;;;17.71;67.09
11395;BME280;5753;54.402;10.220;2023-03-22T00:57:57;100785.13;;;16.68;70.92
11395;BME280;5753;54.402;10.220;2023-03-22T01:00:24;100778.78;;;17.61;65.30
11395;BME280;5753;54.402;10.220;2023-03-22T01:02:50;100773.09;;;17.32;65.25
11395;BME280;5753;54.402;10.220;2023-03-22T01:05:18;100772.16;;;16.61;67.84
11395;BME280;5753;54.402;10.220;2023-03-22T01:07:47;100768.81;;;17.91;65.42
11395;BME280;5753;54.402;10.220;2023-03-22T01:10:16;100770.00;;;18.76;60.91
11395;BME280;5753;54.402;10.220;2023-03-22T01:12:43;100767.47;;;17.62;64.38
11395;BME280;5753;54.402;10.220;2023-03-22T01:15:10;100767.16;;;17.21;65.99
11395;BME280;5753;54.402;10.220;2023-03-22T01:17:36;100755.53;;;17.45;65.70
11395;BME280;5753;54.402;10.220;2023-03-22T01:20:03;100772.13;;;17.39;66.05
11395;BME280;5753;54.402;10.220;2023-03-22T01:22:29;100759.97;;;17.38;65.47
11395;BME280;5753;54.402;10.220;2023-03-22T01:24:55;100760.81;;;17.42;65.64
11395;BME280;5753;54.402;10.220;2023-03-22T01:27:22;100755.09;;;17.80;62.87
11395;BME280;5753;54.402;10.220;2023-03-22T01:29:48;100757.50;;;17.29;64.49
11395;BME280;5753;54.402;10.220;2023-03-22T01:32:14;100749.53;;;15.66;71.37
11395;BME280;5753;54.402;10.220;2023-03-22T01:34:40;100749.31;;;17.58;65.70
11395;BME280;5753;54.402;10.220;2023-03-22T01:37:06;100743.09;;;17.04;65.66
11395;BME280;5753;54.402;10.220;2023-03-22T01:39:32;100742.19;;;17.06;64.49
11395;BME280;5753;54.402;10.220;2023-03-22T01:42:00;100732.34;;;17.28;64.83
11395;BME280;5753;54.402;10.220;2023-03-22T01:44:30;100733.50;;;16.20;69.58
11395;BME280;5753;54.402;10.220;2023-03-22T01:46:56;100735.28;;;17.04;66.06
11395;BME280;5753;54.402;10.220;2023-03-22T01:49:26;100732.69;;;17.00;66.45
11395;BME280;5753;54.402;10.220;2023-03-22T01:51:56;100730.09;;;17.67;63.20
11395;BME280;5753;54.402;10.220;2023-03-22T01:54:29;100725.06;;;16.84;66.03
11395;BME280;5753;54.402;10.220;2023-03-22T01:56:59;100727.91;;;16.61;67.62
11395;BME280;5753;54.402;10.220;2023-03-22T01:59:26;100716.63;;;15.62;69.54
11395;BME280;5753;54.402;10.220;2023-03-22T02:01:53;100724.44;;;16.60;66.81
11395;BME280;5753;54.402;10.220;2023-03-22T02:04:20;100718.38;;;16.60;66.09
11395;BME280;5753;54.402;10.220;2023-03-22T02:06:54;100703.56;;;17.94;61.44
11395;BME280;5753;54.402;10.220;2023-03-22T02:09:20;100715.75;;;16.63;65.41
11395;BME280;5753;54.402;10.220;2023-03-22T02:20:25;100710.03;;;17.09;64.37
11395;BME280;5753;54.402;10.220;2023-03-22T03:00:42;100692.97;;;15.94;66.50
11395;BME280;5753;54.402;10.220;2023-03-22T03:03:11;100692.78;;;16.98;63.65
11395;BME280;5753;54.402;10.220;2023-03-22T03:05:43;100697.03;;;16.27;65.92
11395;BME280;5753;54.402;10.220;2023-03-22T03:08:12;100688.59;;;16.85;64.12
11395;BME280;5753;54.402;10.220;2023-03-22T03:10:40;100679.53;;;17.17;64.17
11395;BME280;5753;54.402;10.220;2023-03-22T03:13:12;100687.38;;;16.37;66.85
11395;BME280;5753;54.402;10.220;2023-03-22T03:15:41;100675.91;;;15.57;68.30
11395;BME280;5753;54.402;10.220;2023-03-22T03:23:53;100667.53;;;17.07;64.28
11395;BME280;5753;54.402;10.220;2023-03-22T03:31:56;100673.41;;;18.29;59.76
11395;BME280;5753;54.402;10.220;2023-03-22T03:37:32;100664.94;;;17.05;64.33
11395;BME280;5753;54.402;10.220;2023-03-22T03:40:05;100668.16;;;16.50;66.85
11395;BME280;5753;54.402;10.220;2023-03-22T03:42:37;100669.44;;;16.14;66.90
11395;BME280;5753;54.402;10.220;2023-03-22T03:45:06;100670.03;;;15.32;70.58
11395;BME280;5753;54.402;10.220;2023-03-22T03:47:34;100668.47;;;16.21;67.46
11395;BME280;5753;54.402;10.220;2023-03-22T03:50:02;100660.34;;;16.52;66.13
11395;BME280;5753;54.402;10.220;2023-03-22T03:52:28;100667.88;;;16.78;66.73
11395;BME280;5753;54.402;10.220;2023-03-22T03:54:55;100656.53;;;16.83;65.03
11395;BME280;5753;54.402;10.220;2023-03-22T03:57:21;100653.34;;;17.83;62.17
11395;BME280;5753;54.402;10.220;2023-03-22T03:59:47;100646.97;;;16.84;65.05
11395;BME280;5753;54.402;10.220;2023-03-22T04:02:13;100644.69;;;17.81;61.58
11395;BME280;5753;54.402;10.220;2023-03-22T04:04:41;100651.09;;;17.60;62.07
11395;BME280;5753;54.402;10.220;2023-03-22T04:07:07;100651.38;;;15.94;68.02
11395;BME280;5753;54.402;10.220;2023-03-22T04:09:36;100649.50;;;16.12;69.31
11395;BME280;5753;54.402;10.220;2023-03-22T04:12:03;100642.97;;;16.57;67.17
11395;BME280;5753;54.402;10.220;2023-03-22T04:14:29;100646.97;;;16.04;70.51
11395;BME280;5753;54.402;10.220;2023-03-22T04:16:55;100641.84;;;17.39;62.87
11395;BME280;5753;54.402;10.220;2023-03-22T04:19:22;100641.38;;;17.71;62.37
11395;BME280;5753;54.402;10.220;2023-03-22T04:21:48;100634.72;;;17.53;61.80
11395;BME280;5753;54.402;10.220;2023-03-22T04:24:18;100635.69;;;17.45;62.34
11395;BME280;5753;54.402;10.220;2023-03-22T04:26:45;100634.47;;;18.64;59.74
11395;BME280;5753;54.402;10.220;2023-03-22T04:29:12;100629.56;;;16.14;66.97
11395;BME280;5753;54.402;10.220;2023-03-22T04:31:38;100615.69;;;16.87;64.12
11395;BME280;5753;54.402;10.220;2023-03-22T04:34:05;100619.78;;;17.06;64.76
11395;BME280;5753;54.402;10.220;2023-03-22T04:36:36;100622.66;;;16.86;65.97
11395;BME280;5753;54.402;10.220;2023-03-22T04:39:11;100613.78;;;17.58;63.11
11395;BME280;5753;54.402;10.220;2023-03-22T04:41:37;100611.84;;;17.15;62.88
11395;BME280;5753;54.402;10.220;2023-03-22T04:44:05;100616.78;;;17.86;61.79
11395;BME280;5753;54.402;10.220;2023-03-22T04:46:34;100607.03;;;17.43;63.56
11395;BME280;5753;54.402;10.220;2023-03-22T04:49:00;100611.63;;;17.29;64.68
11395;BME280;5753;54.402;10.220;2023-03-22T04:51:27;100621.34;;;16.49;67.53
11395;BME280;5753;54.402;10.220;2023-03-22T04:53:54;100606.00;;;17.55;63.69
11395;BME280;5753;54.402;10.220;2023-03-22T04:56:20;100614.72;;;18.06;60.86
11395;BME280;5753;54.402;10.220;2023-03-22T04:58:47;100604.06;;;17.69;62.56
11395;BME280;5753;54.402;10.220;2023-03-22T05:01:15;100597.78;;;16.62;66.65
11395;BME280;5753;54.402;10.220;2023-03-22T05:03:42;100604.44;;;16.85;67.42
11395;BME280;5753;54.402;10.220;2023-03-22T05:06:10;100606.16;;;16.87;65.36
11395;BME280;5753;54.402;10.220;2023-03-22T05:08:37;100602.22;;;17.19;64.36
11395;BME280;5753;54.402;10.220;2023-03-22T05:11:12;100588.66;;;18.49;60.00
11395;BME280;5753;54.402;10.220;2023-03-22T05:13:39;100596.69;;;16.82;65.53
11395;BME280;5753;54.402;10.220;2023-03-22T05:16:06;100596.06;;;16.61;65.37
11395;BME280;5753;54.402;10.220;2023-03-22T05:18:32;100595.34;;;17.15;63.11
11395;BME280;5753;54.402;10.220;2023-03-22T05:21:00;100590.56;;;16.84;64.20
11395;BME280;5753;54.402;10.220;2023-03-22T05:23:28;100588.69;;;18.03;60.97
11395;BME280;5753;54.402;10.220;2023-03-22T05:25:54;100589.50;;;17.54;61.96
11395;BME280;5753;54.402;10.220;2023-03-22T05:28:23;100594.94;;;17.39;62.52
11395;BME280;5753;54.402;10.220;2023-03-22T05:30:52;100592.25;;;17.99;60.77
11395;BME280;5753;54.402;10.220;2023-03-22T05:33:18;100589.06;;;17.82;61.05
11395;BME280;5753;54.402;10.220;2023-03-22T05:35:48;100590.44;;;16.93;63.68
11395;BME280;5753;54.402;10.220;2023-03-22T05:38:17;100604.31;;;17.52;62.47
11395;BME280;5753;54.402;10.220;2023-03-22T05:40:43;100598.38;;;16.12;68.56
11395;BME280;5753;54.402;10.220;2023-03-22T05:43:10;100600.59;;;16.43;67.17
11395;BME280;5753;54.402;10.220;2023-03-22T05:45:36;100596.31;;;16.38;65.48
11395;BME280;5753;54.402;10.220;2023-03-22T05:48:03;100603.03;;;15.80;69.27
11395;BME280;5753;54.402;10.220;2023-03-22T05:50:30;100608.53;;;16.33;66.81
11395;BME280;5753;54.402;10.220;2023-03-22T05:52:56;100602.13;;;17.25;64.09
11395;BME280;5753;54.402;10.220;2023-03-22T05:55:22;100598.31;;;16.17;70.42
11395;BME280;5753;54.402;10.220;2023-03-22T05:57:49;100586.84;;;16.34;67.96
11395;BME280;5753;54.402;10.220;2023-03-22T06:00:19;100588.44;;;15.57;70.36
11395;BME280;5753;54.402;10.220;2023-03-22T06:02:47;100590.81;;;16.66;64.59
11395;BME280;5753;54.402;10.220;2023-03-22T06:05:15;100583.00;;;17.80;63.23
11395;BME280;5753;54.402;10.220;2023-03-22T06:07:41;100581.22;;;16.70;65.75
11395;BME280;5753;54.402;10.220;2023-03-22T06:10:13;100575.41;;;17.66;62.35
11395;BME280;5753;54.402;10.220;2023-03-22T06:12:39;100569.41;;;18.10;61.04
11395;BME280;5753;54.402;10.220;2023-03-22T06:15:06;100570.19;;;18.15;59.97
11395;BME280;5753;54.402;10.220;2023-03-22T06:17:33;100562.81;;;16.83;63.50
11395;BME280;5753;54.402;10.220;2023-03-22T06:19:59;100559.53;;;18.26;60.02
11395;BME280;5753;54.402;10.220;2023-03-22T06:22:25;100555.44;;;17.13;63.16
11395;BME280;5753;54.402;10.220;2023-03-22T06:24:51;100561.94;;;18.78;58.47
11395;BME280;5753;54.402;10.220;2023-03-22T06:27:18;100558.59;;;17.31;62.43
11395;BME280;5753;54.402;10.220;2023-03-22T06:29:44;100559.31;;;17.92;59.79
11395;BME280;5753;54.402;10.220;2023-03-22T06:32:15;100563.72;;;16.10;64.17
11395;BME280;5753;54.402;10.220;2023-03-22T06:34:41;100557.47;;;17.97;60.73
11395;BME280;5753;54.402;10.220;2023-03-22T06:37:08;100567.03;;;17.47;63.05
11395;BME280;5753;54.402;10.220;2023-03-22T06:39:34;100561.09;;;16.82;63.55
11395;BME280;5753;54.402;10.220;2023-03-22T06:42:00;100567.88;;;16.92;63.90
11395;BME280;5753;54.402;10.220;2023-03-22T06:44:26;100565.16;;;18.06;58.95
11395;BME280;5753;54.402;10.220;2023-03-22T06:46:52;100575.84;;;17.40;61.42
11395;BME280;5753;54.402;10.220;2023-03-22T06:49:19;100579.69;;;16.50;63.72
11395;BME280;5753;54.402;10.220;2023-03-22T06:51:46;100575.91;;;17.88;60.09
11395;BME280;5753;54.402;10.220;2023-03-22T06:54:13;100576.06;;;17.26;61.65
11395;BME280;5753;54.402;10.220;2023-03-22T06:56:41;100571.78;;;15.84;65.97
11395;BME280;5753;54.402;10.220;2023-03-22T06:59:07;100574.75;;;16.30;66.29
11395;BME280;5753;54.402;10.220;2023-03-22T07:01:33;100562.88;;;18.33;59.73
11395;BME280;5753;54.402;10.220;2023-03-22T07:03:59;100565.41;;;17.40;59.56
11395;BME280;5753;54.402;10.220;2023-03-22T07:06:26;100563.59;;;16.90;62.17
11395;BME280;5753;54.402;10.220;2023-03-22T07:08:52;100568.13;;;16.77;62.32
11395;BME280;5753;54.402;10.220;2023-03-22T07:11:18;100568.63;;;18.07;59.37
11395;BME280;5753;54.402;10.220;2023-03-22T07:13:44;100563.22;;;17.70;60.49
11395;BME280;5753;54.402;10.220;2023-03-22T07:16:10;100564.59;;;16.81;62.04
11395;BME280;5753;54.402;10.220;2023-03-22T07:18:37;100563.38;;;18.08;58.08
11395;BME280;5753;54.402;10.220;2023-03-22T07:21:03;100548.09;;;16.81;61.90
11395;BME280;5753;54.402;10.220;2023-03-22T07:23:29;100550.16;;;16.57;63.27
11395;BME280;5753;54.402;10.220;2023-03-22T07:25:56;100554.00;;;17.98;59.49
11395;BME280;5753;54.402;10.220;2023-03-22T07:28:24;100550.16;;;18.17;58.50
11395;BME280;5753;54.402;10.220;2023-03-22T07:31:03;100539.94;;;17.07;62.69
11395;BME280;5753;54.402;10.220;2023-03-22T07:33:29;100547.91;;;16.94;61.22
11395;BME280;5753;54.402;10.220;2023-03-22T07:35:55;100552.63;;;17.79;59.15
11395;BME280;5753;54.402;10.220;2023-03-22T07:38:21;100543.72;;;17.89;58.97
11395;BME280;5753;54.402;10.220;2023-03-22T07:40:50;100542.22;;;16.68;61.94
11395;BME280;5753;54.402;10.220;2023-03-22T07:43:18;100541.69;;;17.05;61.76
11395;BME280;5753;54.402;10.220;2023-03-22T07:45:45;100541.47;;;16.58;63.71
11395;BME280;5753;54.402;10.220;2023-03-22T07:48:11;100528.22;;;17.32;60.37
11395;BME280;5753;54.402;10.220;2023-03-22T07:50:37;100528.25;;;17.30;61.50
11395;BME280;5753;54.402;10.220;2023-03-22T07:53:04;100514.69;;;18.09;58.98
11395;BME280;5753;54.402;10.220;2023-03-22T07:55:30;100506.16;;;18.41;57.89
11395;BME280;5753;54.402;10.220;2023-03-22T07:57:56;100510.38;;;18.86;56.96
11395;BME280;5753;54.402;10.220;2023-03-22T08:00:22;100499.38;;;19.77;54.39
11395;BME280;5753;54.402;10.220;2023-03-22T08:02:49;100507.28;;;17.86;57.86
11395;BME280;5753;54.402;10.220;2023-03-22T08:05:15;100492.75;;;18.17;58.48
11395;BME280;5753;54.402;10.220;2023-03-22T08:07:41;100488.34;;;17.76;59.03
11395;BME280;5753;54.402;10.220;2023-03-22T08:10:08;100489.66;;;18.00;59.01
11395;BME280;5753;54.402;10.220;2023-03-22T08:12:34;100482.63;;;18.04;59.09
11395;BME280;5753;54.402;10.220;2023-03-22T08:15:00;100483.22;;;18.95;55.96
11395;BME280;5753;54.402;10.220;2023-03-22T08:17:28;100480.16;;;18.36;57.35
11395;BME280;5753;54.402;10.220;2023-03-22T08:19:55;100467.59;;;19.26;54.76
11395;BME280;5753;54.402;10.220;2023-03-22T08:22:22;100459.97;;;18.46;57.79
11395;BME280;5753;54.402;10.220;2023-03-22T08:24:51;100453.22;;;18.74;56.59
11395;BME280;5753;54.402;10.220;2023-03-22T08:27:17;100449.44;;;19.56;53.72
11395;BME280;5753;54.402;10.220;2023-03-22T08:29:44;100435.38;;;19.60;53.22
11395;BME280;5753;54.402;10.220;2023-03-22T08:32:11;100440.41;;;19.01;55.25
11395;BME280;5753;54.402;10.220;2023-03-22T08:34:39;100434.63;;;20.46;52.17
11395;BME280;5753;54.402;10.220;2023-03-22T08:37:06;100418.41;;;19.74;53.20
11395;BME280;5753;54.402;10.220;2023-03-22T08:39:33;100417.81;;;20.24;52.26
11395;BME280;5753;54.402;10.220;2023-03-22T08:42:00;100421.19;;;19.03;54.79
11395;BME280;5753;54.402;10.220;2023-03-22T08:44:26;100422.19;;;18.62;55.89
11395;BME280;5753;54.402;10.220;2023-03-22T08:46:53;100440.53;;;19.29;55.36
11395;BME280;5753;54.402;10.220;2023-03-22T08:49:19;100429.69;;;19.76;53.60
11395;BME280;5753;54.402;10.220;2023-03-22T08:51:46;100436.97;;;18.99;54.04
11395;BME280;5753;54.402;10.220;2023-03-22T08:54:13;100439.13;;;18.43;55.80
11395;BME280;5753;54.402;10.220;2023-03-22T08:56:39;100432.03;;;17.69;58.22
11395;BME280;5753;54.402;10.220;2023-03-22T08:59:07;100435.53;;;18.85;55.84
11395;BME280;5753;54.402;10.220;2023-03-22T09:01:35;100443.84;;;19.03;54.41
11395;BME280;5753;54.402;10.220;2023-03-22T09:04:02;100451.03;;;19.27;53.69
11395;BME280;5753;54.402;10.220;2023-03-22T09:06:29;100463.78;;;18.30;56.43
11395;BME280;5753;54.402;10.220;2023-03-22T09:08:55;100436.59;;;18.40;56.31
11395;BME280;5753;54.402;10.220;2023-03-22T09:11:22;100433.22;;;19.43;54.53
11395;BME280;5753;54.402;10.220;2023-03-22T09:13:49;100434.19;;;20.30;52.29
11395;BME280;5753;54.402;10.220;2023-03-22T09:16:16;100429.06;;;19.34;54.66
11395;BME280;5753;54.402;10.220;2023-03-22T09:18:43;100439.22;;;18.38;56.86
11395;BME280;5753;54.402;10.220;2023-03-22T09:21:10;100428.88;;;20.61;52.91
11395;BME280;5753;54.402;10.220;2023-03-22T09:23:37;100421.75;;;21.18;50.60
11395;BME280;5753;54.402;10.220;2023-03-22T09:26:06;100426.03;;;21.47;50.71
11395;BME280;5753;54.402;10.220;2023-03-22T09:28:34;100422.34;;;21.76;50.14
11395;BME280;5753;54.402;10.220;2023-03-22T09:31:06;100430.88;;;21.34;49.97
11395;BME280;5753;54.402;10.220;2023-03-22T09:33:36;100424.50;;;20.34;52.23
11395;BME280;5753;54.402;10.220;2023-03-22T09:36:03;100404.09;;;19.88;52.78
11395;BME280;5753;54.402;10.220;2023-03-22T09:38:29;100410.78;;;19.34;55.45
11395;BME280;5753;54.402;10.220;2023-03-22T09:41:04;100405.63;;;19.95;52.93
11395;BME280;5753;54.402;10.220;2023-03-22T09:43:36;100402.69;;;19.43;54.83
11395;BME280;5753;54.402;10.220;2023-03-22T09:46:05;100387.44;;;19.90;53.54
11395;BME280;5753;54.402;10.220;2023-03-22T09:48:38;100402.00;;;19.69;52.76
11395;BME280;5753;54.402;10.220;2023-03-22T09:51:15;100396.00;;;19.66;54.21
11395;BME280;5753;54.402;10.220;2023-03-22T09:53:43;100395.13;;;21.05;51.15
11395;BME280;5753;54.402;10.220;2023-03-22T09:56:19;100393.25;;;20.84;50.93
11395;BME280;5753;54.402;10.220;2023-03-22T10:01:57;100392.28;;;21.11;50.82
11395;BME280;5753;54.402;10.220;2023-03-22T10:07:32;100384.88;;;20.46;50.56
11395;BME280;5753;54.402;10.220;2023-03-22T10:10:12;100394.09;;;19.38;54.57
11395;BME280;5753;54.402;10.220;2023-03-22T10:12:55;100387.78;;;19.78;52.96
11395;BME280;5753;54.402;10.220;2023-03-22T10:15:46;100401.34;;;18.59;55.81
11395;BME280;5753;54.402;10.220;2023-03-22T10:24:07;100384.59;;;20.26;52.30
11395;BME280;5753;54.402;10.220;2023-03-22T10:26:10;100385.63;;;19.63;53.49
11395;BME280;5753;54.402;10.220;2023-03-22T10:28:44;100389.63;;;20.88;51.20
11395;BME280;5753;54.402;10.220;2023-03-22T10:31:15;100384.41;;;20.04;52.05
11395;BME280;5753;54.402;10.220;2023-03-22T10:34:03;100387.25;;;20.24;52.00
11395;BME280;5753;54.402;10.220;2023-03-22T10:36:33;100375.16;;;19.63;53.30
11395;BME280;5753;54.402;10.220;2023-03-22T10:39:12;100385.63;;;20.76;51.30
11395;BME280;5753;54.402;10.220;2023-03-22T10:41:42;100390.13;;;20.46;51.91
11395;BME280;5753;54.402;10.220;2023-03-22T10:44:15;100386.78;;;20.11;51.91
11395;BME280;5753;54.402;10.220;2023-03-22T10:46:43;100388.28;;;21.01;50.24
11395;BME280;5753;54.402;10.220;2023-03-22T10:49:21;100395.34;;;20.46;51.57
11395;BME280;5753;54.402;10.220;2023-03-22T10:51:56;100385.56;;;20.78;50.51
11395;BME280;5753;54.402;10.220;2023-03-22T10:54:27;100400.56;;;19.89;52.18
11395;BME280;5753;54.402;10.220;2023-03-22T10:56:53;100379.78;;;19.21;53.80
11395;BME280;5753;54.402;10.220;2023-03-22T11:02:29;100387.16;;;19.70;53.58
11395;BME280;5753;54.402;10.220;2023-03-22T11:05:02;100392.44;;;20.55;51.92
11395;BME280;5753;54.402;10.220;2023-03-22T11:07:39;100392.56;;;19.31;52.92
11395;BME280;5753;54.402;10.220;2023-03-22T11:12:35;100387.53;;;19.87;52.40
11395;BME280;5753;54.402;10.220;2023-03-22T11:15:03;100383.69;;;20.27;50.66
11395;BME280;5753;54.402;10.220;2023-03-22T11:17:30;100394.31;;;19.31;52.61
11395;BME280;5753;54.402;10.220;2023-03-22T11:19:59;100376.97;;;19.28;52.76
11395;BME280;5753;54.402;10.220;2023-03-22T11:22:39;100393.06;;;19.76;51.67
11395;BME280;5753;54.402;10.220;2023-03-22T11:25:20;100394.78;;;19.77;51.38
11395;BME280;5753;54.402;10.220;2023-03-22T11:28:32;100401.81;;;19.75;51.98
11395;BME280;5753;54.402;10.220;2023-03-22T11:31:11;100397.09;;;18.91;53.12
11395;BME280;5753;54.402;10.220;2023-03-22T11:33:53;100387.09;;;19.40;53.00
11395;BME280;5753;54.402;10.220;2023-03-22T11:36:19;100394.06;;;20.30;49.82
11395;BME280;5753;54.402;10.220;2023-03-22T11:38:46;100386.44;;;19.65;51.80
11395;BME280;5753;54.402;10.220;2023-03-22T11:41:24;100385.75;;;21.24;48.53
11395;BME280;5753;54.402;10.220;2023-03-22T11:43:53;100383.69;;;21.08;48.30
11395;BME280;5753;54.402;10.220;2023-03-22T11:46:21;100386.34;;;21.06;47.71
11395;BME280;5753;54.402;10.220;2023-03-22T11:48:50;100391.47;;;18.73;51.74
11395;BME280;5753;54.402;10.220;2023-03-22T11:51:29;100383.19;;;21.21;47.49
11395;BME280;5753;54.402;10.220;2023-03-22T11:54:11;100381.47;;;20.15;49.86
11395;BME280;5753;54.402;10.220;2023-03-22T11:56:47;100382.03;;;19.34;50.37
11395;BME280;5753;54.402;10.220;2023-03-22T12:01:49;100383.88;;;18.25;52.57
11395;BME280;5753;54.402;10.220;2023-03-22T12:04:21;100390.94;;;17.80;53.48
11395;BME280;5753;54.402;10.220;2023-03-22T12:06:54;100362.94;;;19.00;50.91
11395;BME280;5753;54.402;10.220;2023-03-22T12:12:21;100363.94;;;20.17;47.90
11395;BME280;5753;54.402;10.220;2023-03-22T12:15:00;100354.44;;;19.24;49.51
11395;BME280;5753;54.402;10.220;2023-03-22T12:18:01;100364.47;;;19.70;48.36
11395;BME280;5753;54.402;10.220;2023-03-22T12:20:36;100368.72;;;20.04;47.39
11395;BME280;5753;54.402;10.220;2023-03-22T12:23:18;100369.91;;;18.65;50.12
11395;BME280;5753;54.402;10.220;2023-03-22T12:26:16;100369.28;;;18.90;50.03
11395;BME280;5753;54.402;10.220;2023-03-22T12:31:34;100375.91;;;19.03;49.25
11395;BME280;5753;54.402;10.220;2023-03-22T12:34:15;100362.50;;;19.47;49.33
11395;BME280;5753;54.402;10.220;2023-03-22T12:36:48;100369.63;;;18.76;51.26
11395;BME280;5753;54.402;10.220;2023-03-22T12:39:42;100364.06;;;18.90;50.40
11395;BME280;5753;54.402;10.220;2023-03-22T12:44:43;100402.22;;;17.36;53.76
11395;BME280;5753;54.402;10.220;2023-03-22T12:47:12;100388.66;;;18.07;52.16
11395;BME280;5753;54.402;10.220;2023-03-22T12:50:02;100369.91;;;17.88;53.97
11395;BME280;5753;54.402;10.220;2023-03-22T12:52:36;100370.69;;;17.50;55.67
11395;BME280;5753;54.402;10.220;2023-03-22T12:55:04;100363.94;;;17.83;54.47
11395;BME280;5753;54.402;10.220;2023-03-22T12:57:31;100351.44;;;18.73;53.05
11395;BME280;5753;54.402;10.220;2023-03-22T12:59:58;100358.88;;;18.52;54.45
11395;BME280;5753;54.402;10.220;2023-03-22T13:02:32;100358.69;;;18.24;55.01
11395;BME280;5753;54.402;10.220;2023-03-22T13:05:01;100351.19;;;18.48;54.38
11395;BME280;5753;54.402;10.220;2023-03-22T13:10:49;100359.44;;;19.01;54.42
11395;BME280;5753;54.402;10.220;2023-03-22T13:21:13;100355.84;;;19.36;55.33
11395;BME280;5753;54.402;10.220;2023-03-22T13:29:38;100359.06;;;18.80;56.36
11395;BME280;5753;54.402;10.220;2023-03-22T13:32:28;100356.16;;;17.38;58.13
11395;BME280;5753;54.402;10.220;2023-03-22T13:34:56;100371.81;;;16.90;61.13
11395;BME280;5753;54.402;10.220;2023-03-22T13:37:44;100371.38;;;18.38;57.02
11395;BME280;5753;54.402;10.220;2023-03-22T13:40:35;100360.56;;;16.88;62.43
11395;BME280;5753;54.402;10.220;2023-03-22T13:46:09;100361.72;;;18.42;57.63
11395;BME280;5753;54.402;10.220;2023-03-22T13:51:15;100353.56;;;18.57;58.66
11395;BME280;5753;54.402;10.220;2023-03-22T13:58:58;100368.13;;;19.01;57.33
11395;BME280;5753;54.402;10.220;2023-03-22T14:01:28;100373.72;;;17.73;60.42
11395;BME280;5753;54.402;10.220;2023-03-22T14:03:58;100378.69;;;17.41;61.50
11395;BME280;5753;54.402;10.220;2023-03-22T14:06:36;100388.84;;;17.10;64.33
11395;BME280;5753;54.402;10.220;2023-03-22T14:09:23;100393.56;;;17.34;63.54
11395;BME280;5753;54.402;10.220;2023-03-22T14:12:30;100385.53;;;17.45;64.38
11395;BME280;5753;54.402;10.220;2023-03-22T14:15:00;100376.00;;;16.97;65.48
11395;BME280;5753;54.402;10.220;2023-03-22T14:18:14;100376.72;;;17.95;64.71
11395;BME280;5753;54.402;10.220;2023-03-22T14:20:23;100360.09;;;18.38;62.10
11395;BME280;5753;54.402;10.220;2023-03-22T14:22:57;100354.06;;;18.36;61.65
11395;BME280;5753;54.402;10.220;2023-03-22T14:25:30;100344.09;;;18.53;63.06
11395;BME280;5753;54.402;10.220;2023-03-22T14:27:58;100355.75;;;18.01;62.46
11395;BME280;5753;54.402;10.220;2023-03-22T14:32:59;100342.69;;;18.38;62.96
11395;BME280;5753;54.402;10.220;2023-03-22T14:35:38;100361.13;;;17.49;67.90
11395;BME280;5753;54.402;10.220;2023-03-22T14:38:08;100374.63;;;17.26;66.29
11395;BME280;5753;54.402;10.220;2023-03-22T14:40:39;100374.91;;;17.57;65.74
11395;BME280;5753;54.402;10.220;2023-03-22T14:45:42;100363.50;;;18.04;62.13
11395;BME280;5753;54.402;10.220;2023-03-22T14:48:18;100363.16;;;17.79;64.71
11395;BME280;5753;54.402;10.220;2023-03-22T14:50:53;100367.66;;;17.28;65.06
11395;BME280;5753;54.402;10.220;2023-03-22T14:53:31;100367.41;;;16.38;71.41
11395;BME280;5753;54.402;10.220;2023-03-22T14:55:58;100375.66;;;17.17;68.13
11395;BME280;5753;54.402;10.220;2023-03-22T14:58:31;100374.16;;;17.50;66.03
11395;BME280;5753;54.402;10.220;2023-03-22T15:01:02;100374.38;;;17.38;67.42
11395;BME280;5753;54.402;10.220;2023-03-22T15:03:30;100382.84;;;16.51;70.68
11395;BME280;5753;54.402;10.220;2023-03-22T15:05:58;100383.88;;;16.94;69.68